Airfield :







YOU CAN JOIN US ON...

 
LOGIN :

Register | Disclaimer

   EN    FR    IT 

 









Legend :    VFR   Marginal VFR   IFR   Intensive IFR   Very Intensive IFR
Visi :
Ceiling :
>= 8 km
>= 3000ft
5 to 8 km
1000 to 3000 ft
1500m to 5 km
500 to 1000 ft
800 to 1500m
200 to 500 ft
< 800m
< 200 ft
Symbols :   Thunderstorms  Fog  Heavy snow  Heavy precipitations  Wind > 20 kt







- Airport Elevation : 555 ft


KORE - Orange Municipal

CURRENT METAR :
  • 230452Z AUTO 29011G21KT 3/4SM -SN BR VV012 01/M02 A2928 RMK AO2 PK WND 31029/0422 SNB0357 SLP921 P0001 T00061017 400500006

EXPIRED METARs :
  • 230442Z AUTO 28012G26KT 3/4SM -SN VV012 01/M02 A2928 RMK AO2 PK WND 31029/0422 SNB0357 P0000 T00111017
  • 230431Z AUTO 29015G29KT 1SM -SN VV016 01/M02 A2928 RMK AO2 PK WND 31029/0422 SNB0357 P0000 T00111022
  • 230422Z AUTO 29016G29KT 1 1/4SM -SN BKN021 BKN029 OVC043 02/M02 A2927 RMK AO2 PK WND 31029/0422 SNB0357 P0000 T00171022
  • 230352Z AUTO 29009G19KT 10SM FEW032 BKN045 OVC050 03/M03 A2926 RMK AO2 PK WND 28026/0334 RAE0258 SLP913 P0000 T00281028
  • 230252Z AUTO 29011G16KT 10SM -RA FEW027 OVC047 03/M02 A2925 RMK AO2 RAB38 SLP909 P0000 60000 T00331017 52009

TAF N/A
KZBW FIR / North America



MET'MAP, your aeronautical weather chart ! - Copyright ORBIFLY December 2007 - Disclaimer

ORBIFLY MET'MAP TEAM :

Programming & Development : Alexandra Zaïnal
Concept & Development : Baudouin d'Aumeries
Co-Development & Prog : Marc-Olivier Méhu
Technical & hardware support : Manuel Goepfert

Contact : metmap@orbifly.com




SOURCES & CREDITS :

   NOAA